Time;durP1;ratioP1;P1;durP2;ratioP2;P2;SDS_P1;SDS_P2;PMS_P1;PMS_P2;Temp;Humidity;BMP_temperature;BMP_pressure;BME280_temperature;BME280_humidity;BME280_pressure;Samples;Min_cycle;Max_cycle;Signal;HPM_P1;HPM_P2
2022/01/22 00:00:07;;;;;;;42.03;13.68;;;;;;;;;;5006679;28;20022;-67
2022/01/22 00:02:32;;;;;;;28.30;13.73;;;;;;;;;;5009269;28;20061;-67
2022/01/22 00:04:57;;;;;;;44.30;13.67;;;;;;;;;;5011209;28;20099;-67
2022/01/22 00:07:22;;;;;;;57.90;15.07;;;;;;;;;;5009956;28;20645;-67
2022/01/22 00:09:51;;;;;;;51.03;15.17;;;;;;;;;;5006656;28;20299;-67
2022/01/22 00:12:30;;;;;;;34.47;13.95;;;;;;;;;;5011137;28;20606;-67
2022/01/22 00:14:56;;;;;;;45.70;16.90;;;;;;;;;;5009621;28;20071;-67
2022/01/22 00:17:21;;;;;;;56.03;16.85;;;;;;;;;;5001657;28;20022;-67
2022/01/22 00:19:46;;;;;;;42.58;16.67;;;;;;;;;;5003478;28;20083;-64
2022/01/22 00:22:11;;;;;;;50.75;17.83;;;;;;;;;;5011183;28;20351;-66
2022/01/22 00:24:39;;;;;;;42.00;13.85;;;;;;;;;;5008579;28;20033;-66
2022/01/22 00:27:04;;;;;;;40.80;16.63;;;;;;;;;;5010760;28;20072;-65
2022/01/22 00:29:30;;;;;;;39.42;15.70;;;;;;;;;;5002378;28;20506;-66
2022/01/22 00:31:55;;;;;;;43.08;17.23;;;;;;;;;;5007888;28;20034;-67
2022/01/22 00:34:20;;;;;;;37.73;16.20;;;;;;;;;;5010562;28;20094;-67
2022/01/22 00:36:45;;;;;;;45.17;15.98;;;;;;;;;;5009962;28;20766;-67
2022/01/22 00:39:10;;;;;;;37.38;15.20;;;;;;;;;;5009778;28;20123;-67
2022/01/22 00:41:36;;;;;;;53.63;17.13;;;;;;;;;;5010224;28;20018;-66
2022/01/22 00:44:01;;;;;;;49.13;19.52;;;;;;;;;;5010636;28;20490;-66
2022/01/22 00:46:27;;;;;;;48.28;16.95;;;;;;;;;;5006154;28;20026;-66
2022/01/22 00:48:52;;;;;;;44.55;16.15;;;;;;;;;;5009520;28;20029;-66
2022/01/22 00:51:17;;;;;;;46.78;15.43;;;;;;;;;;5009081;28;20922;-66
2022/01/22 00:53:42;;;;;;;48.38;19.38;;;;;;;;;;5010431;28;20030;-66
2022/01/22 00:56:08;;;;;;;36.40;15.27;;;;;;;;;;5006830;28;20104;-66
2022/01/22 00:58:33;;;;;;;39.28;17.58;;;;;;;;;;5008543;28;20037;-66
2022/01/22 01:00:58;;;;;;;42.00;16.83;;;;;;;;;;5009604;28;20018;-66
2022/01/22 01:03:23;;;;;;;46.63;17.23;;;;;;;;;;4987594;28;20653;-67
2022/01/22 01:05:48;;;;;;;42.33;14.50;;;;;;;;;;5006342;28;20109;-66
2022/01/22 01:08:14;;;;;;;42.33;15.77;;;;;;;;;;5009237;28;20099;-67
2022/01/22 01:10:39;;;;;;;49.33;17.73;;;;;;;;;;5008552;28;20265;-65
2022/01/22 01:13:05;;;;;;;47.97;15.15;;;;;;;;;;5003234;28;20553;-65
2022/01/22 01:34:16;;;;;;;57.13;22.83;;;;;;;;;;5008755;28;20068;-66
2022/01/22 01:36:41;;;;;;;52.92;19.55;;;;;;;;;;5006274;28;20644;-66
2022/01/22 01:39:10;;;;;;;60.05;21.95;;;;;;;;;;5008040;28;20022;-66
2022/01/22 01:41:54;;;;;;;52.88;20.05;;;;;;;;;;5006599;28;20030;-66
2022/01/22 01:44:20;;;;;;;60.38;25.10;;;;;;;;;;5004911;28;20421;-65
2022/01/22 01:46:47;;;;;;;54.47;20.45;;;;;;;;;;5005850;28;20045;-67
2022/01/22 01:49:12;;;;;;;49.05;22.60;;;;;;;;;;5007853;28;20077;-65
2022/01/22 01:51:37;;;;;;;75.53;27.23;;;;;;;;;;5009116;28;20037;-66
2022/01/22 01:54:22;;;;;;;54.90;21.30;;;;;;;;;;5007851;28;20026;-65
2022/01/22 01:59:31;;;;;;;54.03;21.25;;;;;;;;;;4993471;28;20401;-65
2022/01/22 02:01:56;;;;;;;56.35;24.80;;;;;;;;;;5007448;28;20038;-65
2022/01/22 02:04:21;;;;;;;57.05;23.05;;;;;;;;;;5009347;28;20025;-65
2022/01/22 02:06:47;;;;;;;61.70;29.50;;;;;;;;;;5004905;28;20072;-65
2022/01/22 02:09:12;;;;;;;63.88;22.48;;;;;;;;;;5007710;28;20105;-65
2022/01/22 02:11:39;;;;;;;55.53;27.85;;;;;;;;;;5009973;28;20065;-65
2022/01/22 02:24:59;;;;;;;71.10;33.33;;;;;;;;;;5008873;28;20517;-65
2022/01/22 02:27:25;;;;;;;70.00;32.65;;;;;;;;;;5006013;28;20026;-65
2022/01/22 02:29:50;;;;;;;76.60;35.30;;;;;;;;;;5010447;28;20121;-65
2022/01/22 02:33:00;;;;;;;72.68;33.80;;;;;;;;;;5012656;28;20034;-65
2022/01/22 02:35:18;;;;;;;62.50;25.85;;;;;;;;;;4999106;28;20033;-65
2022/01/22 02:37:51;;;;;;;76.10;29.13;;;;;;;;;;5009161;28;20022;-65
2022/01/22 02:40:24;;;;;;;73.20;28.45;;;;;;;;;;5011871;28;20111;-65
2022/01/22 02:42:50;;;;;;;70.85;28.25;;;;;;;;;;5010388;28;20029;-65
2022/01/22 02:45:19;;;;;;;80.05;37.88;;;;;;;;;;5008619;28;20018;-65
2022/01/22 02:47:45;;;;;;;88.57;31.35;;;;;;;;;;5010155;28;20025;-66
2022/01/22 02:50:10;;;;;;;81.07;31.58;;;;;;;;;;5006786;28;20026;-66
2022/01/22 02:52:36;;;;;;;82.97;33.58;;;;;;;;;;5002833;28;20547;-66
2022/01/22 02:55:03;;;;;;;97.20;37.43;;;;;;;;;;5012044;28;20065;-66
2022/01/22 02:57:31;;;;;;;88.28;39.72;;;;;;;;;;5007981;28;20276;-66
2022/01/22 02:59:58;;;;;;;80.90;31.30;;;;;;;;;;5010671;28;20493;-66
2022/01/22 03:02:23;;;;;;;76.68;31.13;;;;;;;;;;5011804;28;20022;-66
2022/01/22 03:04:48;;;;;;;85.93;37.50;;;;;;;;;;5004458;28;20014;-66
2022/01/22 03:07:13;;;;;;;86.63;34.73;;;;;;;;;;5011384;28;20088;-66
2022/01/22 03:09:41;;;;;;;89.38;34.47;;;;;;;;;;5007477;28;20273;-66
2022/01/22 03:29:05;;;;;;;88.18;33.80;;;;;;;;;;4952138;28;20045;-66
2022/01/22 03:31:31;;;;;;;86.65;34.33;;;;;;;;;;5011804;28;20072;-66
2022/01/22 03:33:56;;;;;;;84.88;33.95;;;;;;;;;;5012070;28;20482;-66
2022/01/22 03:36:22;;;;;;;98.90;40.72;;;;;;;;;;5000962;28;20375;-66
2022/01/22 03:38:48;;;;;;;92.82;33.20;;;;;;;;;;5008138;28;20018;-66
2022/01/22 03:41:13;;;;;;;104.40;39.10;;;;;;;;;;5010758;28;20033;-66
2022/01/22 03:43:39;;;;;;;83.55;35.83;;;;;;;;;;5007628;28;20106;-66
2022/01/22 03:46:04;;;;;;;85.32;32.20;;;;;;;;;;5012213;28;20140;-66
2022/01/22 03:48:29;;;;;;;107.13;36.95;;;;;;;;;;5005134;28;20101;-66
2022/01/22 03:50:54;;;;;;;97.90;38.08;;;;;;;;;;5010000;28;20029;-66
2022/01/22 03:53:19;;;;;;;91.63;34.33;;;;;;;;;;5008339;28;20541;-66
2022/01/22 03:58:10;;;;;;;77.18;33.25;;;;;;;;;;5008254;28;20458;-66
2022/01/22 04:00:35;;;;;;;89.68;34.22;;;;;;;;;;5011649;28;20032;-66
2022/01/22 04:08:30;;;;;;;88.22;34.25;;;;;;;;;;4974448;28;20045;-66
2022/01/22 04:10:55;;;;;;;87.90;35.45;;;;;;;;;;5010175;28;20025;-66
2022/01/22 04:13:27;;;;;;;98.47;41.75;;;;;;;;;;5002039;28;20104;-66
2022/01/22 04:15:53;;;;;;;87.55;34.60;;;;;;;;;;5009928;28;20018;-66
2022/01/22 04:26:52;;;;;;;81.05;34.17;;;;;;;;;;4997520;28;20057;-65
2022/01/22 04:29:17;;;;;;;100.72;41.50;;;;;;;;;;5008242;28;20091;-66
2022/01/22 04:31:42;;;;;;;104.17;42.77;;;;;;;;;;5010601;28;20025;-66
2022/01/22 04:34:07;;;;;;;94.73;36.07;;;;;;;;;;5010608;28;20284;-66
2022/01/22 04:36:32;;;;;;;100.05;37.28;;;;;;;;;;5011500;28;20307;-66
2022/01/22 04:38:57;;;;;;;97.00;37.90;;;;;;;;;;5008594;28;20022;-66
2022/01/22 04:41:23;;;;;;;87.18;36.28;;;;;;;;;;5010625;28;20037;-66
2022/01/22 04:43:50;;;;;;;98.68;35.72;;;;;;;;;;5009593;28;20025;-66
2022/01/22 04:46:23;;;;;;;96.65;38.03;;;;;;;;;;5010265;28;20100;-65
2022/01/22 04:56:42;;;;;;;95.43;38.08;;;;;;;;;;4995219;28;20390;-65
2022/01/22 04:59:07;;;;;;;99.25;42.30;;;;;;;;;;5005776;28;20026;-66
2022/01/22 05:01:32;;;;;;;104.17;40.13;;;;;;;;;;5010368;28;20026;-66
2022/01/22 05:03:57;;;;;;;90.35;37.65;;;;;;;;;;5009357;28;20272;-65
2022/01/22 05:06:22;;;;;;;95.70;38.43;;;;;;;;;;5008666;28;20037;-65
2022/01/22 05:08:47;;;;;;;97.67;36.40;;;;;;;;;;5008680;28;20276;-66
2022/01/22 05:11:13;;;;;;;106.23;39.10;;;;;;;;;;5009524;28;20291;-65
2022/01/22 05:13:38;;;;;;;109.97;39.50;;;;;;;;;;5008240;28;20304;-66
2022/01/22 05:16:03;;;;;;;95.75;34.53;;;;;;;;;;5008512;28;20072;-66
2022/01/22 05:18:29;;;;;;;120.03;56.00;;;;;;;;;;5002210;28;20088;-66
2022/01/22 05:21:06;;;;;;;96.35;37.67;;;;;;;;;;5007549;28;20450;-65
2022/01/22 05:23:32;;;;;;;91.65;36.08;;;;;;;;;;5008389;28;20038;-66
2022/01/22 05:26:01;;;;;;;92.10;34.45;;;;;;;;;;5007843;28;20026;-66
2022/01/22 05:31:31;;;;;;;119.18;41.28;;;;;;;;;;5009740;28;20029;-66
2022/01/22 05:36:58;;;;;;;102.38;41.00;;;;;;;;;;5008859;28;20490;-65
2022/01/22 05:39:24;;;;;;;96.10;37.08;;;;;;;;;;5007077;28;20026;-65
2022/01/22 05:41:50;;;;;;;101.53;40.45;;;;;;;;;;5008924;28;20032;-66
2022/01/22 05:44:15;;;;;;;97.80;33.13;;;;;;;;;;5009995;28;20093;-65
2022/01/22 05:46:40;;;;;;;122.70;42.97;;;;;;;;;;5008289;28;20104;-65
2022/01/22 05:49:06;;;;;;;96.38;36.70;;;;;;;;;;5002657;28;20121;-65
2022/01/22 05:51:31;;;;;;;101.65;40.05;;;;;;;;;;5010208;28;20034;-65
2022/01/22 05:54:30;;;;;;;94.45;36.42;;;;;;;;;;5003858;28;20499;-66
2022/01/22 05:59:39;;;;;;;101.35;37.17;;;;;;;;;;5009255;28;20449;-65
2022/01/22 06:02:05;;;;;;;99.15;35.78;;;;;;;;;;5009190;28;20053;-65
2022/01/22 06:04:30;;;;;;;102.35;38.08;;;;;;;;;;5009223;28;20037;-65
2022/01/22 06:06:55;;;;;;;106.78;37.03;;;;;;;;;;5012714;28;20049;-65
2022/01/22 06:09:21;;;;;;;113.35;36.35;;;;;;;;;;5012479;28;20033;-66
2022/01/22 06:11:58;;;;;;;88.07;37.22;;;;;;;;;;5011795;28;20022;-66
2022/01/22 06:14:23;;;;;;;88.70;35.13;;;;;;;;;;5011930;28;20493;-66
2022/01/22 06:16:49;;;;;;;103.15;37.70;;;;;;;;;;5009285;28;20160;-66
2022/01/22 06:19:14;;;;;;;99.35;37.45;;;;;;;;;;5010731;28;20040;-66
2022/01/22 06:21:39;;;;;;;90.72;35.30;;;;;;;;;;5012365;28;20028;-66
2022/01/22 06:24:05;;;;;;;100.45;39.97;;;;;;;;;;5011249;28;20022;-66
2022/01/22 06:26:30;;;;;;;106.70;37.50;;;;;;;;;;5011204;28;20014;-65
2022/01/22 06:28:56;;;;;;;117.93;51.05;;;;;;;;;;5012769;28;20065;-66
2022/01/22 06:31:21;;;;;;;100.10;36.58;;;;;;;;;;5012389;28;20025;-65
2022/01/22 06:33:46;;;;;;;94.25;34.22;;;;;;;;;;5012553;28;20585;-65
2022/01/22 06:36:12;;;;;;;109.88;41.72;;;;;;;;;;5011934;28;20030;-65
2022/01/22 06:38:37;;;;;;;110.63;42.47;;;;;;;;;;5011048;28;20038;-66
2022/01/22 06:43:46;;;;;;;94.78;37.33;;;;;;;;;;5012633;28;20049;-65
2022/01/22 06:46:11;;;;;;;106.47;38.13;;;;;;;;;;5012563;28;20022;-66
2022/01/22 06:48:36;;;;;;;83.47;34.35;;;;;;;;;;5007532;28;20684;-65
2022/01/22 06:51:02;;;;;;;97.15;38.10;;;;;;;;;;5009999;28;20459;-66
2022/01/22 06:53:27;;;;;;;103.97;35.70;;;;;;;;;;5007169;28;20026;-65
2022/01/22 06:56:02;;;;;;;91.47;34.80;;;;;;;;;;5011985;28;20036;-65
2022/01/22 06:58:27;;;;;;;104.07;36.40;;;;;;;;;;5010477;28;20061;-65
2022/01/22 07:00:52;;;;;;;107.90;36.72;;;;;;;;;;5009231;28;20033;-65
2022/01/22 07:03:18;;;;;;;96.65;36.08;;;;;;;;;;5011765;28;20025;-66
2022/01/22 07:05:43;;;;;;;106.22;38.38;;;;;;;;;;5008181;28;20017;-65
2022/01/22 07:08:08;;;;;;;116.70;46.30;;;;;;;;;;5011749;28;20013;-65
2022/01/22 07:10:34;;;;;;;94.60;35.83;;;;;;;;;;5009319;28;20466;-65
2022/01/22 07:12:59;;;;;;;109.85;41.05;;;;;;;;;;5011569;28;20276;-65
2022/01/22 07:15:24;;;;;;;127.57;44.25;;;;;;;;;;5010622;28;20022;-65
2022/01/22 07:17:50;;;;;;;103.63;35.17;;;;;;;;;;5010871;28;20018;-65
2022/01/22 07:20:25;;;;;;;99.40;34.88;;;;;;;;;;5006613;28;20079;-65
2022/01/22 07:23:01;;;;;;;97.90;32.78;;;;;;;;;;5010623;28;20026;-65
2022/01/22 07:25:26;;;;;;;103.60;35.25;;;;;;;;;;5009595;28;20064;-65
2022/01/22 07:27:52;;;;;;;110.90;36.25;;;;;;;;;;5011995;28;20443;-65
2022/01/22 07:30:17;;;;;;;103.68;36.45;;;;;;;;;;5009086;28;20032;-65
2022/01/22 07:32:44;;;;;;;106.53;36.10;;;;;;;;;;5010390;28;20029;-65
2022/01/22 07:35:13;;;;;;;124.22;49.13;;;;;;;;;;5009021;28;20079;-65
2022/01/22 07:37:39;;;;;;;108.30;38.53;;;;;;;;;;5010325;28;20100;-65
2022/01/22 07:40:05;;;;;;;97.07;35.38;;;;;;;;;;5009934;28;20022;-65
2022/01/22 07:42:31;;;;;;;105.10;36.17;;;;;;;;;;5008699;28;20465;-65
2022/01/22 07:44:56;;;;;;;114.97;43.15;;;;;;;;;;5007168;28;20061;-65
2022/01/22 07:47:21;;;;;;;107.35;40.10;;;;;;;;;;5009150;28;20025;-65
2022/01/22 07:49:46;;;;;;;92.93;35.95;;;;;;;;;;5007157;28;20017;-65
2022/01/22 07:52:11;;;;;;;102.73;37.03;;;;;;;;;;5010401;28;20029;-65
2022/01/22 07:54:36;;;;;;;108.47;43.22;;;;;;;;;;5009959;28;20411;-65
2022/01/22 07:57:02;;;;;;;119.93;37.50;;;;;;;;;;5007295;28;20156;-66
2022/01/22 07:59:28;;;;;;;107.07;36.78;;;;;;;;;;5008918;28;20120;-65
2022/01/22 08:01:53;;;;;;;109.78;36.72;;;;;;;;;;5008317;28;20160;-65
2022/01/22 08:04:23;;;;;;;100.63;37.17;;;;;;;;;;5005830;28;20028;-66
2022/01/22 08:06:49;;;;;;;102.85;40.63;;;;;;;;;;5008916;28;20018;-66
2022/01/22 08:09:14;;;;;;;116.88;39.50;;;;;;;;;;5008577;28;20487;-65
2022/01/22 08:11:39;;;;;;;106.63;36.67;;;;;;;;;;5004007;28;20085;-65
2022/01/22 08:14:06;;;;;;;114.60;38.95;;;;;;;;;;5002167;28;20029;-66
2022/01/22 08:16:31;;;;;;;108.75;38.25;;;;;;;;;;5003312;28;20037;-65
2022/01/22 08:18:57;;;;;;;111.17;37.50;;;;;;;;;;5005066;28;20027;-66
2022/01/22 08:21:22;;;;;;;122.60;41.15;;;;;;;;;;5002736;28;20271;-65
2022/01/22 08:23:47;;;;;;;118.25;38.00;;;;;;;;;;5008107;28;20029;-65
2022/01/22 08:26:17;;;;;;;110.88;39.25;;;;;;;;;;5009072;28;20694;-65
2022/01/22 08:28:57;;;;;;;121.53;39.90;;;;;;;;;;5009816;28;20017;-65
2022/01/22 08:31:27;;;;;;;118.13;39.40;;;;;;;;;;4993394;28;20061;-66
2022/01/22 08:36:36;;;;;;;111.97;38.63;;;;;;;;;;5009903;28;20801;-65
2022/01/22 08:39:01;;;;;;;126.50;43.47;;;;;;;;;;5008389;28;20069;-66
2022/01/22 08:41:26;;;;;;;108.38;36.75;;;;;;;;;;5008355;28;20033;-66
2022/01/22 08:43:53;;;;;;;99.60;43.75;;;;;;;;;;5008756;28;20093;-65
2022/01/22 08:46:19;;;;;;;116.53;45.40;;;;;;;;;;5010478;28;20022;-66
2022/01/22 08:48:44;;;;;;;99.85;36.60;;;;;;;;;;5009784;28;20030;-66
2022/01/22 08:51:09;;;;;;;110.43;41.85;;;;;;;;;;5008864;28;20029;-66
2022/01/22 08:53:34;;;;;;;110.38;43.95;;;;;;;;;;5008340;28;20024;-65
2022/01/22 08:56:02;;;;;;;106.85;37.47;;;;;;;;;;5009913;28;20076;-66
2022/01/22 08:58:27;;;;;;;135.50;44.92;;;;;;;;;;5005267;28;20044;-66
2022/01/22 09:00:52;;;;;;;117.25;39.90;;;;;;;;;;5010651;28;20453;-66
2022/01/22 09:03:19;;;;;;;116.40;39.20;;;;;;;;;;5009188;28;20030;-65
2022/01/22 09:05:46;;;;;;;124.90;45.80;;;;;;;;;;5010742;28;20018;-65
2022/01/22 09:08:11;;;;;;;113.65;38.03;;;;;;;;;;5000829;28;20506;-65
2022/01/22 09:10:37;;;;;;;124.97;40.38;;;;;;;;;;5008617;28;20034;-66
2022/01/22 09:13:02;;;;;;;116.72;42.15;;;;;;;;;;5002578;28;20101;-65
2022/01/22 09:15:27;;;;;;;103.53;39.10;;;;;;;;;;5010235;28;20120;-66
2022/01/22 09:17:52;;;;;;;116.30;37.85;;;;;;;;;;5009628;28;20025;-65
2022/01/22 09:20:44;;;;;;;102.65;39.15;;;;;;;;;;5010551;28;20080;-66
2022/01/22 09:23:10;;;;;;;108.30;37.85;;;;;;;;;;5009159;28;20025;-66
2022/01/22 09:25:36;;;;;;;110.95;39.85;;;;;;;;;;5010615;28;20021;-66
2022/01/22 09:28:01;;;;;;;116.20;41.75;;;;;;;;;;5008489;28;20022;-66
2022/01/22 09:30:26;;;;;;;115.70;40.10;;;;;;;;;;5010543;28;20026;-66
2022/01/22 09:32:51;;;;;;;111.45;44.45;;;;;;;;;;5009451;28;20097;-66
2022/01/22 09:35:17;;;;;;;116.93;41.58;;;;;;;;;;5010492;28;20112;-66
2022/01/22 09:37:42;;;;;;;118.28;43.60;;;;;;;;;;5008841;28;20021;-66
2022/01/22 09:40:08;;;;;;;133.85;48.70;;;;;;;;;;5007531;28;20022;-65
2022/01/22 09:42:33;;;;;;;127.75;50.03;;;;;;;;;;5010047;28;20034;-66
2022/01/22 09:44:58;;;;;;;109.35;38.47;;;;;;;;;;5012110;28;20033;-66
2022/01/22 09:47:24;;;;;;;129.77;49.87;;;;;;;;;;5013235;28;20030;-66
2022/01/22 09:49:49;;;;;;;118.18;41.03;;;;;;;;;;5012529;28;20407;-65
2022/01/22 09:52:15;;;;;;;110.97;35.88;;;;;;;;;;5009877;28;20044;-66
2022/01/22 09:54:40;;;;;;;101.57;36.25;;;;;;;;;;5008475;28;20033;-66
2022/01/22 09:57:06;;;;;;;112.22;42.38;;;;;;;;;;5004282;28;20040;-66
2022/01/22 09:59:32;;;;;;;107.85;42.38;;;;;;;;;;5006812;28;20554;-66
2022/01/22 10:02:11;;;;;;;96.60;35.83;;;;;;;;;;5003861;28;20047;-66
2022/01/22 10:04:38;;;;;;;88.10;33.10;;;;;;;;;;5006698;28;20033;-66
2022/01/22 10:07:03;;;;;;;105.53;42.28;;;;;;;;;;5009608;28;20022;-66
2022/01/22 10:09:35;;;;;;;109.38;38.22;;;;;;;;;;5013175;28;20033;-66
2022/01/22 10:12:11;;;;;;;104.45;36.20;;;;;;;;;;5010442;28;20113;-66
2022/01/22 10:14:55;;;;;;;93.03;31.90;;;;;;;;;;5007742;28;20037;-66
2022/01/22 10:17:37;;;;;;;94.55;37.80;;;;;;;;;;5010783;28;20029;-65
2022/01/22 10:20:02;;;;;;;89.75;32.78;;;;;;;;;;5008902;28;20072;-66
2022/01/22 10:22:41;;;;;;;94.13;35.38;;;;;;;;;;5010844;28;20418;-66
2022/01/22 10:25:18;;;;;;;96.03;33.55;;;;;;;;;;5009449;28;20041;-66
2022/01/22 10:27:47;;;;;;;108.88;36.47;;;;;;;;;;5013680;28;20058;-66
2022/01/22 10:30:17;;;;;;;93.73;34.03;;;;;;;;;;5007988;28;20029;-65
2022/01/22 10:32:57;;;;;;;78.63;31.95;;;;;;;;;;5009073;28;20470;-66
2022/01/22 10:35:24;;;;;;;90.47;32.65;;;;;;;;;;5003052;28;20112;-66
2022/01/22 10:38:00;;;;;;;87.25;31.67;;;;;;;;;;5012704;28;20033;-66
2022/01/22 10:40:29;;;;;;;91.60;34.67;;;;;;;;;;5011141;28;20079;-66
2022/01/22 10:43:34;;;;;;;82.43;31.40;;;;;;;;;;5009418;28;20017;-65
2022/01/22 10:46:14;;;;;;;99.18;34.72;;;;;;;;;;5011597;28;20014;-66
2022/01/22 10:48:43;;;;;;;84.03;32.87;;;;;;;;;;5012904;28;20022;-66
2022/01/22 10:51:10;;;;;;;110.45;39.30;;;;;;;;;;5011917;28;20024;-65
2022/01/22 10:53:41;;;;;;;94.40;31.83;;;;;;;;;;5013197;28;20410;-66
2022/01/22 10:56:07;;;;;;;110.20;43.35;;;;;;;;;;5015546;28;20025;-65
2022/01/22 10:58:33;;;;;;;115.38;37.28;;;;;;;;;;5021729;28;20025;-66
2022/01/22 11:01:03;;;;;;;97.47;33.30;;;;;;;;;;4997913;28;20064;-66
2022/01/22 11:03:29;;;;;;;95.65;34.10;;;;;;;;;;5009969;28;20076;-66
2022/01/22 11:05:55;;;;;;;106.90;41.40;;;;;;;;;;5011487;28;20030;-66
2022/01/22 11:08:20;;;;;;;89.93;34.28;;;;;;;;;;5010009;28;20116;-66
2022/01/22 11:10:46;;;;;;;99.53;33.17;;;;;;;;;;5010805;28;20053;-66
2022/01/22 11:13:11;;;;;;;102.38;42.55;;;;;;;;;;5011057;28;20041;-66
2022/01/22 11:15:38;;;;;;;94.10;33.20;;;;;;;;;;5012793;28;20033;-66
2022/01/22 11:18:04;;;;;;;96.57;35.88;;;;;;;;;;5017778;28;20017;-66
2022/01/22 11:20:31;;;;;;;92.28;32.63;;;;;;;;;;5000553;28;20523;-66
2022/01/22 11:22:57;;;;;;;94.25;32.28;;;;;;;;;;4993218;28;20046;-66
2022/01/22 11:25:24;;;;;;;87.68;32.08;;;;;;;;;;5009492;28;20401;-66
2022/01/22 11:27:49;;;;;;;94.78;35.70;;;;;;;;;;5012420;28;20034;-66
2022/01/22 11:30:15;;;;;;;80.78;30.17;;;;;;;;;;5011965;28;20568;-66
2022/01/22 11:32:41;;;;;;;96.00;36.58;;;;;;;;;;5012561;28;20025;-66
2022/01/22 11:35:07;;;;;;;85.22;31.60;;;;;;;;;;5012535;28;20026;-66
2022/01/22 11:37:55;;;;;;;80.53;30.05;;;;;;;;;;5011948;28;20281;-66
2022/01/22 11:40:22;;;;;;;84.05;33.75;;;;;;;;;;5012026;28;20103;-66
2022/01/22 11:43:08;;;;;;;76.82;30.73;;;;;;;;;;5012433;28;20018;-66
2022/01/22 11:45:42;;;;;;;79.93;30.55;;;;;;;;;;5012570;28;20014;-66
2022/01/22 11:48:10;;;;;;;77.50;30.55;;;;;;;;;;5011186;28;20654;-67
2022/01/22 11:50:35;;;;;;;73.32;27.88;;;;;;;;;;5012113;28;20026;-66
2022/01/22 11:53:20;;;;;;;70.80;29.60;;;;;;;;;;5012249;28;20033;-66
2022/01/22 11:56:05;;;;;;;58.00;24.80;;;;;;;;;;4992822;28;20030;-66
2022/01/22 11:58:30;;;;;;;68.97;31.05;;;;;;;;;;4995643;28;20083;-66
2022/01/22 12:00:55;;;;;;;64.15;23.20;;;;;;;;;;5011890;28;20100;-66
2022/01/22 12:03:21;;;;;;;56.08;23.33;;;;;;;;;;5010251;28;20030;-67
2022/01/22 12:05:55;;;;;;;57.47;24.45;;;;;;;;;;5011869;28;20382;-65
2022/01/22 12:08:22;;;;;;;50.33;21.38;;;;;;;;;;5011675;28;20054;-67
2022/01/22 12:16:15;;;;;;;47.65;20.25;;;;;;;;;;5011413;28;20088;-66
2022/01/22 12:18:46;;;;;;;45.42;19.90;;;;;;;;;;5011247;28;20108;-67
2022/01/22 12:23:55;;;;;;;52.67;25.55;;;;;;;;;;5011826;28;20083;-66
2022/01/22 12:26:44;;;;;;;52.22;22.30;;;;;;;;;;5011178;28;20497;-66
2022/01/22 12:29:28;;;;;;;50.13;22.48;;;;;;;;;;5011224;28;20110;-66
2022/01/22 12:32:14;;;;;;;57.90;27.10;;;;;;;;;;5011442;28;20536;-67
2022/01/22 12:34:58;;;;;;;52.17;22.63;;;;;;;;;;5011499;28;20399;-66
2022/01/22 12:37:24;;;;;;;61.13;25.15;;;;;;;;;;5007223;28;20418;-66
2022/01/22 12:39:53;;;;;;;69.82;33.05;;;;;;;;;;5010675;28;20022;-66
2022/01/22 12:42:53;;;;;;;64.13;24.77;;;;;;;;;;5004258;28;20037;-67
2022/01/22 12:45:09;;;;;;;68.88;25.08;;;;;;;;;;5007535;28;20048;-66
2022/01/22 12:47:37;;;;;;;59.55;24.95;;;;;;;;;;5010737;28;20467;-67
2022/01/22 12:50:08;;;;;;;62.15;26.17;;;;;;;;;;5010994;28;20040;-67
2022/01/22 12:52:34;;;;;;;59.50;25.58;;;;;;;;;;5010314;28;20036;-66
2022/01/22 12:55:00;;;;;;;70.35;35.10;;;;;;;;;;5006338;28;20029;-67
2022/01/22 12:57:27;;;;;;;77.63;36.30;;;;;;;;;;5010193;28;20029;-67
2022/01/22 13:00:09;;;;;;;74.55;28.15;;;;;;;;;;5009497;28;20458;-67
2022/01/22 13:02:36;;;;;;;64.47;26.52;;;;;;;;;;5007857;28;20025;-67
2022/01/22 13:05:02;;;;;;;71.35;25.88;;;;;;;;;;5010732;28;20014;-68
2022/01/22 13:07:28;;;;;;;67.30;26.58;;;;;;;;;;5010465;28;20117;-68
2022/01/22 13:09:58;;;;;;;68.05;25.30;;;;;;;;;;5010581;28;20554;-66
2022/01/22 13:12:26;;;;;;;66.72;24.38;;;;;;;;;;5010715;28;20018;-66
2022/01/22 13:14:55;;;;;;;60.00;24.13;;;;;;;;;;5009612;28;20026;-66
2022/01/22 13:17:27;;;;;;;72.97;26.83;;;;;;;;;;5010039;28;20028;-66
2022/01/22 13:19:52;;;;;;;65.32;23.05;;;;;;;;;;5010168;28;20049;-67
2022/01/22 13:22:17;;;;;;;60.83;23.92;;;;;;;;;;5010958;28;20455;-67
2022/01/22 13:24:43;;;;;;;66.00;24.50;;;;;;;;;;5007435;28;20026;-67
2022/01/22 13:27:13;;;;;;;65.53;28.83;;;;;;;;;;5001819;28;20475;-67
2022/01/22 13:29:40;;;;;;;65.60;25.73;;;;;;;;;;5008949;28;21679;-66
2022/01/22 13:32:10;;;;;;;59.25;24.52;;;;;;;;;;5010597;28;20029;-66
2022/01/22 13:35:05;;;;;;;54.75;24.58;;;;;;;;;;5010311;28;20391;-66
2022/01/22 13:45:07;;;;;;;63.72;23.73;;;;;;;;;;5010018;28;20064;-66
2022/01/22 13:48:30;;;;;;;67.47;25.80;;;;;;;;;;4992433;28;20054;-66
2022/01/22 13:53:22;;;;;;;67.75;28.10;;;;;;;;;;4945490;28;20400;-65
2022/01/22 13:56:02;;;;;;;69.32;31.67;;;;;;;;;;4951718;28;20023;-66
2022/01/22 13:58:27;;;;;;;69.75;27.05;;;;;;;;;;4949877;28;20078;-65
2022/01/22 14:00:53;;;;;;;76.03;29.10;;;;;;;;;;4951111;28;20432;-66
2022/01/22 14:03:31;;;;;;;66.68;28.40;;;;;;;;;;4951560;28;20361;-65
2022/01/22 14:05:57;;;;;;;74.18;31.13;;;;;;;;;;4951747;28;20022;-66
2022/01/22 14:08:32;;;;;;;66.40;28.92;;;;;;;;;;4951207;28;20023;-65
2022/01/22 14:11:16;;;;;;;70.47;28.95;;;;;;;;;;4950876;28;20031;-65
2022/01/22 14:13:41;;;;;;;66.78;28.42;;;;;;;;;;4949001;28;20098;-66
2022/01/22 14:16:10;;;;;;;84.22;31.02;;;;;;;;;;4951029;28;20022;-66
2022/01/22 14:18:39;;;;;;;84.90;29.98;;;;;;;;;;4945642;28;20054;-65
2022/01/22 14:21:04;;;;;;;84.00;30.77;;;;;;;;;;4949749;28;20102;-65
2022/01/22 14:23:30;;;;;;;80.53;39.15;;;;;;;;;;4950866;28;20106;-65
2022/01/22 14:25:55;;;;;;;81.30;31.75;;;;;;;;;;4949616;28;20274;-65
2022/01/22 14:28:40;;;;;;;85.32;33.00;;;;;;;;;;4951865;28;20361;-65
2022/01/22 14:31:17;;;;;;;81.82;33.13;;;;;;;;;;4952185;28;20023;-65
2022/01/22 14:33:43;;;;;;;90.80;34.25;;;;;;;;;;4953880;28;20456;-66
2022/01/22 14:36:08;;;;;;;91.40;34.67;;;;;;;;;;4955028;28;20098;-65
2022/01/22 14:38:42;;;;;;;82.30;35.85;;;;;;;;;;4954403;28;20027;-65
2022/01/22 14:46:52;;;;;;;93.20;37.22;;;;;;;;;;4954319;28;20102;-65
2022/01/22 14:49:25;;;;;;;99.43;40.58;;;;;;;;;;4954331;28;20027;-65
2022/01/22 14:51:51;;;;;;;90.43;39.08;;;;;;;;;;4954134;28;20109;-65
2022/01/22 14:54:16;;;;;;;92.90;36.80;;;;;;;;;;4953959;28;20513;-65
2022/01/22 14:56:42;;;;;;;84.85;35.72;;;;;;;;;;4947662;29;20019;-65
2022/01/22 14:59:08;;;;;;;92.18;41.45;;;;;;;;;;4954252;28;20042;-65
2022/01/22 15:01:33;;;;;;;86.18;34.85;;;;;;;;;;4953327;28;20022;-65
2022/01/22 15:03:58;;;;;;;84.05;36.75;;;;;;;;;;4954506;28;20464;-65
2022/01/22 15:06:23;;;;;;;93.95;37.13;;;;;;;;;;4953196;28;20050;-65
2022/01/22 15:08:48;;;;;;;90.10;38.25;;;;;;;;;;4953842;28;20016;-65
2022/01/22 15:11:14;;;;;;;89.03;35.78;;;;;;;;;;4952183;28;20057;-65
2022/01/22 15:13:39;;;;;;;95.60;35.85;;;;;;;;;;4953223;28;20086;-65
2022/01/22 15:16:04;;;;;;;97.13;40.03;;;;;;;;;;4953206;28;20031;-65
2022/01/22 15:21:08;;;;;;;91.10;40.10;;;;;;;;;;4953878;28;20207;-65
2022/01/22 15:23:33;;;;;;;89.22;40.20;;;;;;;;;;4952971;28;20023;-65
2022/01/22 15:25:58;;;;;;;90.85;40.38;;;;;;;;;;4954567;28;20499;-65
2022/01/22 15:28:26;;;;;;;92.97;36.47;;;;;;;;;;4955559;28;20484;-65
2022/01/22 15:30:53;;;;;;;90.05;37.83;;;;;;;;;;4953224;28;20023;-64
2022/01/22 15:33:23;;;;;;;91.32;40.03;;;;;;;;;;4954128;28;20376;-65
2022/01/22 15:35:48;;;;;;;85.87;35.00;;;;;;;;;;4953617;28;20082;-65
2022/01/22 15:38:13;;;;;;;84.30;35.40;;;;;;;;;;4952427;28;20027;-65
2022/01/22 15:40:38;;;;;;;86.68;37.88;;;;;;;;;;4953062;28;20046;-66
2022/01/22 15:43:04;;;;;;;95.18;37.03;;;;;;;;;;4952587;28;20023;-65
2022/01/22 15:45:33;;;;;;;78.22;32.88;;;;;;;;;;4952654;28;20019;-65
2022/01/22 15:47:58;;;;;;;84.40;34.20;;;;;;;;;;4952408;28;20404;-66
2022/01/22 15:50:24;;;;;;;72.07;31.30;;;;;;;;;;4952738;28;20105;-66
2022/01/22 15:52:49;;;;;;;69.47;31.65;;;;;;;;;;4952548;28;20126;-66
2022/01/22 15:55:14;;;;;;;63.45;27.38;;;;;;;;;;4952253;28;20380;-66
2022/01/22 15:57:41;;;;;;;74.03;30.67;;;;;;;;;;4951800;28;20039;-66
2022/01/22 16:00:07;;;;;;;67.80;27.75;;;;;;;;;;4952516;28;20412;-65
2022/01/22 16:02:33;;;;;;;73.75;29.35;;;;;;;;;;4952851;28;20387;-66
2022/01/22 16:04:59;;;;;;;70.00;29.08;;;;;;;;;;4952936;28;20043;-65
2022/01/22 16:07:24;;;;;;;71.15;27.60;;;;;;;;;;4952217;28;20050;-65
2022/01/22 16:09:51;;;;;;;62.95;26.45;;;;;;;;;;4951471;28;20668;-65
2022/01/22 16:12:17;;;;;;;55.63;22.17;;;;;;;;;;4952912;28;20031;-65